Time;durP1;ratioP1;P1;durP2;ratioP2;P2;SDS_P1;SDS_P2;PMS_P1;PMS_P2;Temp;Humidity;BMP_temperature;BMP_pressure;BME280_temperature;BME280_humidity;BME280_pressure;Samples;Min_cycle;Max_cycle;Signal;HPM_P1;HPM_P2
2023/04/03 00:01:22;;;;;;;44.97;7.27;;;14.50;58.50;;;;;;5029680;28;20640;-94
2023/04/03 00:03:49;;;;;;;38.63;6.83;;;14.50;58.50;;;;;;5031088;28;20205;-94
2023/04/03 00:06:22;;;;;;;36.67;7.00;;;14.40;58.40;;;;;;5029844;28;20214;-94
2023/04/03 00:08:53;;;;;;;52.93;8.93;;;14.50;58.40;;;;;;5028127;28;20220;-95
2023/04/03 00:11:21;;;;;;;39.50;6.83;;;14.40;58.30;;;;;;5032737;28;20219;-94
2023/04/03 00:13:48;;;;;;;36.47;6.77;;;14.50;58.50;;;;;;5030141;28;20569;-95
2023/04/03 00:16:15;;;;;;;49.73;8.63;;;14.40;58.40;;;;;;5030285;28;20216;-95
2023/04/03 00:18:43;;;;;;;40.53;7.07;;;14.40;58.30;;;;;;5026902;28;20242;-94
2023/04/03 00:21:13;;;;;;;38.23;7.47;;;14.40;58.40;;;;;;5030819;28;20225;-94
2023/04/03 00:23:44;;;;;;;52.10;7.83;;;14.40;58.40;;;;;;5029182;28;20317;-93
2023/04/03 00:26:13;;;;;;;48.87;7.80;;;14.40;58.30;;;;;;5030646;28;20217;-93
2023/04/03 00:28:41;;;;;;;51.20;8.07;;;14.40;58.30;;;;;;5016384;28;20207;-93
2023/04/03 00:31:08;;;;;;;37.90;7.30;;;14.40;58.30;;;;;;5025898;28;20643;-93
2023/04/03 00:33:35;;;;;;;40.03;7.10;;;14.40;58.30;;;;;;5029106;28;20214;-94
2023/04/03 00:36:07;;;;;;;31.40;7.43;;;14.40;58.30;;;;;;5029688;28;20232;-94
2023/04/03 00:38:34;;;;;;;42.13;7.67;;;14.30;58.30;;;;;;5029415;28;20233;-94
2023/04/03 00:41:04;;;;;;;29.57;6.60;;;14.30;58.30;;;;;;5030273;28;20706;-95
2023/04/03 00:43:31;;;;;;;42.27;7.67;;;14.30;58.20;;;;;;5035446;28;20305;-94
2023/04/03 00:46:39;;;;;;;80.93;9.50;;;14.30;58.30;;;;;;5030360;28;20661;-95
2023/04/03 00:49:07;;;;;;;34.90;7.03;;;14.30;58.20;;;;;;5029981;28;20199;-95
2023/04/03 00:51:36;;;;;;;37.93;7.17;;;14.30;58.20;;;;;;5030711;28;20670;-95
2023/04/03 00:54:06;;;;;;;73.37;9.77;;;14.30;58.20;;;;;;5028907;28;20329;-95
2023/04/03 00:56:37;;;;;;;37.47;7.30;;;14.30;58.20;;;;;;5029620;28;20582;-95
2023/04/03 00:59:09;;;;;;;29.47;6.93;;;14.20;58.70;;;;;;5030086;28;20330;-95
2023/04/03 01:01:37;;;;;;;41.50;7.70;;;14.20;58.10;;;;;;5029918;28;20610;-94
2023/04/03 01:04:05;;;;;;;52.20;8.53;;;14.20;58.20;;;;;;5024257;22;20273;-94
2023/04/03 01:06:39;;;;;;;52.40;8.23;;;14.20;58.10;;;;;;5010024;28;20218;-95
2023/04/03 01:09:06;;;;;;;47.13;7.60;;;14.20;58.10;;;;;;5009471;28;20230;-95
2023/04/03 01:11:34;;;;;;;59.17;8.73;;;14.20;58.10;;;;;;5008438;28;20200;-95
2023/04/03 01:14:05;;;;;;;49.40;7.47;;;14.20;58.20;;;;;;5008657;28;20295;-94
2023/04/03 01:16:33;;;;;;;36.80;7.37;;;14.20;58.10;;;;;;5010310;28;20211;-94
2023/04/03 01:19:01;;;;;;;48.63;8.23;;;14.20;58.20;;;;;;5008357;28;20786;-94
2023/04/03 01:21:55;;;;;;;33.33;6.97;;;14.20;58.10;;;;;;4993297;28;20235;-94
2023/04/03 01:24:39;;;;;;;40.53;7.77;;;14.20;58.10;;;;;;5008946;28;20231;-94
2023/04/03 01:27:11;;;;;;;41.60;7.77;;;14.10;58.00;;;;;;5005032;28;20306;-94
2023/04/03 01:29:39;;;;;;;47.27;8.70;;;14.10;58.00;;;;;;5009077;28;20486;-94
2023/04/03 01:32:07;;;;;;;41.27;7.70;;;14.10;58.10;;;;;;4990870;28;20229;-94
2023/04/03 01:34:34;;;;;;;45.77;8.10;;;14.10;58.10;;;;;;4990300;28;20209;-94
2023/04/03 01:37:01;;;;;;;38.10;7.30;;;14.10;58.00;;;;;;5008688;28;20323;-93
2023/04/03 01:39:28;;;;;;;42.63;7.77;;;14.10;58.00;;;;;;5008582;28;20234;-93
2023/04/03 01:41:55;;;;;;;47.87;7.97;;;14.10;58.00;;;;;;5009773;28;20209;-95
2023/04/03 01:44:22;;;;;;;36.27;6.97;;;14.10;58.00;;;;;;5010219;28;20224;-94
2023/04/03 01:46:49;;;;;;;50.47;8.50;;;14.00;57.90;;;;;;5009974;28;20209;-93
2023/04/03 01:49:17;;;;;;;42.83;7.27;;;14.00;58.00;;;;;;5009729;28;20306;-95
2023/04/03 01:51:44;;;;;;;35.17;7.27;;;14.10;58.00;;;;;;5008971;28;20202;-94
2023/04/03 01:54:11;;;;;;;42.43;7.83;;;14.00;57.90;;;;;;4986461;28;20254;-95
2023/04/03 01:56:38;;;;;;;41.60;7.70;;;14.00;57.90;;;;;;5008782;28;21061;-94
2023/04/03 01:59:05;;;;;;;36.97;6.87;;;14.00;57.90;;;;;;5005171;28;20243;-95
2023/04/03 02:01:33;;;;;;;38.87;7.43;;;14.00;57.90;;;;;;5010032;28;20203;-94
2023/04/03 02:04:00;;;;;;;34.30;7.80;;;14.00;57.90;;;;;;5010170;28;20212;-94
2023/04/03 02:06:28;;;;;;;34.20;6.77;;;14.00;57.90;;;;;;5009448;28;20576;-94
2023/04/03 02:08:55;;;;;;;48.83;8.33;;;14.00;57.90;;;;;;5009255;28;20201;-94
2023/04/03 02:11:22;;;;;;;39.07;7.67;;;13.90;57.90;;;;;;5009176;28;20204;-95
2023/04/03 02:13:49;;;;;;;43.73;7.33;;;13.90;57.90;;;;;;5005141;28;20243;-94
2023/04/03 02:16:16;;;;;;;37.77;7.07;;;13.90;57.90;;;;;;4975713;28;20215;-94
2023/04/03 02:18:43;;;;;;;36.60;6.93;;;13.90;57.90;;;;;;5005773;28;20322;-94
2023/04/03 02:21:10;;;;;;;38.20;7.03;;;13.90;57.90;;;;;;5009919;28;20213;-95
2023/04/03 02:23:38;;;;;;;33.83;7.27;;;13.90;57.80;;;;;;4992270;28;20276;-94
2023/04/03 02:26:08;;;;;;;42.53;7.87;;;13.90;57.80;;;;;;5009639;28;20198;-94
2023/04/03 02:28:35;;;;;;;36.13;7.30;;;13.90;57.80;;;;;;5009536;28;20233;-94
2023/04/03 02:31:02;;;;;;;42.27;8.03;;;13.90;57.80;;;;;;5009513;28;20274;-95
2023/04/03 02:33:29;;;;;;;54.80;8.47;;;13.90;57.80;;;;;;5013342;28;20206;-95
2023/04/03 02:35:56;;;;;;;50.43;8.67;;;13.80;57.80;;;;;;5011951;28;20209;-95
2023/04/03 02:38:24;;;;;;;60.43;8.67;;;13.80;57.70;;;;;;5005506;28;20715;-96
2023/04/03 02:40:55;;;;;;;43.70;8.03;;;13.80;57.70;;;;;;5012512;28;20235;-95
2023/04/03 02:43:22;;;;;;;35.27;6.77;;;13.80;57.70;;;;;;5012830;28;20262;-94
2023/04/03 02:45:49;;;;;;;36.47;6.93;;;13.80;57.80;;;;;;5012630;28;20232;-95
2023/04/03 02:48:16;;;;;;;42.47;7.33;;;13.70;57.60;;;;;;5012669;28;20538;-95
2023/04/03 02:50:43;;;;;;;42.10;6.97;;;13.80;57.70;;;;;;5011724;28;20295;-95
2023/04/03 02:53:10;;;;;;;41.37;8.03;;;13.80;58.40;;;;;;5012399;28;20505;-95
2023/04/03 02:55:37;;;;;;;34.77;7.37;;;13.80;57.80;;;;;;5011920;28;20216;-94
2023/04/03 02:58:06;;;;;;;36.20;7.73;;;13.80;57.70;;;;;;5012358;28;20590;-93
2023/04/03 03:00:34;;;;;;;39.27;7.50;;;13.70;57.60;;;;;;5006506;28;20217;-95
2023/04/03 03:03:01;;;;;;;45.63;7.90;;;13.70;57.70;;;;;;5012693;28;20217;-94
2023/04/03 03:05:28;;;;;;;42.67;7.73;;;13.70;57.70;;;;;;5013032;28;20209;-94
2023/04/03 03:07:56;;;;;;;36.50;7.27;;;13.70;57.70;;;;;;5012941;28;20199;-95
2023/04/03 03:10:23;;;;;;;48.80;8.10;;;13.70;57.60;;;;;;5011267;28;20210;-95
2023/04/03 03:12:50;;;;;;;37.03;7.43;;;13.70;57.70;;;;;;5012437;28;20201;-94
2023/04/03 03:15:19;;;;;;;70.80;9.53;;;13.70;57.60;;;;;;5010952;28;20211;-95
2023/04/03 03:17:46;;;;;;;46.60;8.70;;;13.70;57.60;;;;;;5006977;28;20548;-94
2023/04/03 03:20:15;;;;;;;40.60;7.40;;;13.70;57.60;;;;;;5013703;28;20325;-95
2023/04/03 03:22:42;;;;;;;37.70;7.60;;;13.70;57.70;;;;;;5012693;28;20207;-95
2023/04/03 03:25:10;;;;;;;56.30;8.77;;;13.60;57.60;;;;;;5010683;28;20937;-94
2023/04/03 03:27:37;;;;;;;34.80;6.87;;;13.60;58.20;;;;;;5011773;28;20199;-94
2023/04/03 03:30:07;;;;;;;75.17;10.23;;;13.60;57.60;;;;;;5009505;28;20343;-95
2023/04/03 03:32:35;;;;;;;37.87;6.97;;;13.60;57.50;;;;;;5011042;28;20210;-95
2023/04/03 03:35:04;;;;;;;40.83;7.83;;;13.60;57.50;;;;;;4994233;28;20206;-95
2023/04/03 03:37:31;;;;;;;40.77;7.40;;;13.60;57.60;;;;;;4992419;28;20573;-94
2023/04/03 03:39:58;;;;;;;42.07;7.70;;;13.60;57.50;;;;;;5008947;28;20242;-94
2023/04/03 03:42:25;;;;;;;34.23;6.97;;;13.60;57.50;;;;;;5009594;28;20287;-94
2023/04/03 03:44:53;;;;;;;40.60;6.87;;;13.60;57.60;;;;;;5011575;28;20613;-94
2023/04/03 03:47:21;;;;;;;44.37;7.43;;;13.60;57.60;;;;;;5011448;28;20213;-94
2023/04/03 03:49:50;;;;;;;44.60;7.63;;;13.60;57.60;;;;;;5011310;28;20663;-94
2023/04/03 03:52:18;;;;;;;41.13;8.30;;;13.50;57.50;;;;;;5011024;28;20230;-93
2023/04/03 03:54:45;;;;;;;35.27;6.60;;;13.60;57.60;;;;;;5011678;28;20214;-94
2023/04/03 03:57:12;;;;;;;45.30;7.67;;;13.50;57.50;;;;;;5010837;28;20248;-94
2023/04/03 03:59:41;;;;;;;39.37;7.07;;;13.60;57.70;;;;;;5000958;28;20245;-94
2023/04/03 04:02:09;;;;;;;45.67;7.63;;;13.60;57.60;;;;;;5001096;28;20210;-95
2023/04/03 04:04:36;;;;;;;43.40;7.43;;;13.50;57.50;;;;;;5024040;28;20225;-95
2023/04/03 04:07:07;;;;;;;36.43;7.50;;;13.50;57.50;;;;;;5011309;28;20277;-95
2023/04/03 04:09:34;;;;;;;30.23;5.97;;;13.50;57.50;;;;;;5012194;28;20198;-94
2023/04/03 04:12:01;;;;;;;39.73;7.43;;;13.50;57.50;;;;;;5010463;28;21948;-95
2023/04/03 04:14:28;;;;;;;54.63;8.63;;;13.50;57.50;;;;;;5010302;28;20213;-95
2023/04/03 04:16:55;;;;;;;62.90;9.10;;;13.50;57.50;;;;;;5009081;28;20202;-95
2023/04/03 04:19:23;;;;;;;49.97;7.97;;;13.50;57.50;;;;;;5009355;28;20305;-95
2023/04/03 04:21:54;;;;;;;44.53;7.53;;;13.50;57.50;;;;;;4993212;28;20704;-94
2023/04/03 04:24:23;;;;;;;37.17;6.83;;;13.50;57.50;;;;;;5010719;28;20222;-95
2023/04/03 04:26:50;;;;;;;42.87;7.40;;;13.50;57.50;;;;;;5010132;28;20204;-95
2023/04/03 04:29:18;;;;;;;46.03;7.63;;;13.50;57.50;;;;;;5009941;28;20302;-94
2023/04/03 04:31:46;;;;;;;35.63;7.33;;;13.50;57.50;;;;;;4996137;28;20207;-94
2023/04/03 04:34:14;;;;;;;38.47;7.37;;;13.50;57.40;;;;;;5012498;28;20444;-94
2023/04/03 04:36:41;;;;;;;37.67;7.73;;;13.50;57.50;;;;;;5009786;28;20316;-95
2023/04/03 04:39:08;;;;;;;38.47;7.33;;;13.50;57.40;;;;;;5008039;28;20221;-96
2023/04/03 04:41:36;;;;;;;51.07;8.67;;;13.50;57.50;;;;;;5004344;28;20297;-94
2023/04/03 04:44:03;;;;;;;48.27;7.73;;;13.50;57.40;;;;;;4994816;28;20306;-95
2023/04/03 04:46:30;;;;;;;49.90;8.20;;;13.40;57.40;;;;;;5010455;28;20220;-95
2023/04/03 04:48:57;;;;;;;32.23;7.10;;;13.50;57.40;;;;;;5010285;28;20214;-95
2023/04/03 04:51:24;;;;;;;35.10;7.30;;;13.40;57.40;;;;;;5010444;28;20299;-94
2023/04/03 04:53:51;;;;;;;60.57;8.93;;;13.40;57.40;;;;;;5008399;28;20207;-94
2023/04/03 04:56:18;;;;;;;31.60;7.03;;;13.40;57.40;;;;;;5010880;28;20298;-94
2023/04/03 04:58:46;;;;;;;41.80;7.47;;;13.40;57.30;;;;;;5011431;28;20241;-95
2023/04/03 05:01:13;;;;;;;34.17;6.97;;;13.40;57.30;;;;;;5008342;28;20309;-94
2023/04/03 05:03:40;;;;;;;36.20;7.43;;;13.40;57.30;;;;;;5010588;28;20308;-95
2023/04/03 05:06:07;;;;;;;37.93;7.40;;;13.40;57.30;;;;;;5006145;28;20306;-95
2023/04/03 05:08:34;;;;;;;41.57;7.03;;;13.30;57.30;;;;;;5010131;28;20206;-94
2023/04/03 05:11:27;;;;;;;38.27;7.07;;;13.40;57.30;;;;;;5010171;28;20592;-95
2023/04/03 05:13:55;;;;;;;31.00;6.73;;;13.40;57.30;;;;;;5010092;28;20211;-94
2023/04/03 05:16:22;;;;;;;42.60;7.47;;;13.40;57.30;;;;;;5008496;28;20293;-94
2023/04/03 05:18:49;;;;;;;48.67;7.93;;;13.40;57.30;;;;;;5008820;28;20229;-95
2023/04/03 05:21:19;;;;;;;59.00;9.03;;;13.40;57.30;;;;;;5009525;28;20211;-95
2023/04/03 05:23:46;;;;;;;43.60;8.17;;;13.30;57.30;;;;;;5008594;28;20237;-95
2023/04/03 05:26:13;;;;;;;34.33;6.87;;;13.40;57.90;;;;;;4998299;28;20867;-95
2023/04/03 05:28:40;;;;;;;43.83;7.70;;;13.30;57.20;;;;;;5008427;28;20230;-94
2023/04/03 05:31:08;;;;;;;32.37;6.80;;;13.30;57.20;;;;;;5010675;28;20203;-95
2023/04/03 05:33:35;;;;;;;46.10;8.03;;;13.30;57.20;;;;;;5010113;28;20212;-95
2023/04/03 05:36:04;;;;;;;38.67;7.50;;;13.30;57.20;;;;;;5008924;28;20204;-95
2023/04/03 05:38:31;;;;;;;45.43;7.60;;;13.30;57.30;;;;;;5009311;28;20203;-95
2023/04/03 05:40:58;;;;;;;37.00;7.47;;;13.30;57.20;;;;;;5010149;28;20247;-95
2023/04/03 05:43:25;;;;;;;38.33;6.87;;;13.30;57.20;;;;;;5007418;28;20209;-94
2023/04/03 05:45:53;;;;;;;43.23;7.70;;;13.30;57.20;;;;;;5012208;28;20295;-94
2023/04/03 05:48:21;;;;;;;29.53;6.83;;;13.30;57.20;;;;;;5010264;28;20214;-95
2023/04/03 05:50:49;;;;;;;47.50;8.20;;;13.30;57.10;;;;;;5009715;28;20648;-95
2023/04/03 05:56:02;;;;;;;30.37;7.30;;;13.30;57.10;;;;;;5002432;28;20214;-96
2023/04/03 05:58:31;;;;;;;40.70;7.67;;;13.30;57.20;;;;;;5010220;28;20232;-95
2023/04/03 06:00:58;;;;;;;33.57;7.50;;;13.30;57.20;;;;;;5009802;28;20679;-95
2023/04/03 06:03:27;;;;;;;30.60;6.53;;;13.30;57.20;;;;;;5008645;28;20215;-95
2023/04/03 06:05:55;;;;;;;48.97;8.37;;;13.30;57.10;;;;;;5007026;28;20247;-94
2023/04/03 06:08:23;;;;;;;49.87;8.00;;;13.30;57.20;;;;;;5009338;28;20306;-94
2023/04/03 06:10:51;;;;;;;56.20;8.37;;;13.30;57.20;;;;;;5007958;28;20227;-94
2023/04/03 06:13:18;;;;;;;38.57;6.97;;;13.30;57.20;;;;;;5008921;28;20194;-94
2023/04/03 06:15:46;;;;;;;43.03;8.53;;;13.30;57.10;;;;;;5011477;28;20243;-95
2023/04/03 06:18:15;;;;;;;32.30;6.80;;;13.30;57.20;;;;;;5025046;28;20560;-94
2023/04/03 06:20:44;;;;;;;39.70;7.87;;;13.20;57.10;;;;;;5013390;28;20392;-94
2023/04/03 06:23:12;;;;;;;26.43;6.63;;;13.20;57.10;;;;;;5023600;28;20202;-95
2023/04/03 06:25:39;;;;;;;29.10;6.80;;;13.20;57.10;;;;;;5020008;28;20232;-94
2023/04/03 06:28:09;;;;;;;24.47;6.17;;;13.20;57.10;;;;;;5020539;28;20212;-94
2023/04/03 06:30:36;;;;;;;31.60;7.10;;;13.20;57.10;;;;;;5019153;28;20222;-95
2023/04/03 06:33:03;;;;;;;27.87;7.03;;;13.30;57.20;;;;;;5018697;28;20232;-95
2023/04/03 06:35:31;;;;;;;52.73;8.77;;;13.20;57.10;;;;;;5018164;28;20213;-94
2023/04/03 06:38:03;;;;;;;53.67;8.60;;;13.20;57.10;;;;;;5000050;28;20202;-95
2023/04/03 06:40:31;;;;;;;25.87;7.17;;;13.30;57.20;;;;;;5006133;28;20675;-95
2023/04/03 06:43:01;;;;;;;30.23;6.77;;;13.20;57.10;;;;;;5017624;28;20223;-95
2023/04/03 06:45:29;;;;;;;31.40;6.77;;;13.20;57.10;;;;;;5012148;28;20269;-94
2023/04/03 06:47:56;;;;;;;43.77;8.27;;;13.20;57.10;;;;;;5014331;28;20279;-96
2023/04/03 06:50:23;;;;;;;30.57;7.17;;;13.10;57.00;;;;;;5016109;28;20201;-94
2023/04/03 06:52:50;;;;;;;31.10;7.13;;;13.20;57.10;;;;;;5016541;28;20223;-95
2023/04/03 06:55:19;;;;;;;52.37;8.57;;;13.20;57.10;;;;;;5012516;28;21752;-95
2023/04/03 06:57:47;;;;;;;30.30;7.23;;;13.20;57.00;;;;;;5016223;28;20237;-95
2023/04/03 07:00:16;;;;;;;43.23;7.67;;;13.20;57.10;;;;;;5011848;28;21902;-95
2023/04/03 07:02:43;;;;;;;34.00;7.47;;;13.20;57.10;;;;;;5012447;28;20279;-94
2023/04/03 07:05:11;;;;;;;51.87;8.77;;;13.10;57.00;;;;;;5005334;28;20641;-93
2023/04/03 07:07:38;;;;;;;38.43;7.30;;;13.10;57.00;;;;;;5007289;28;20206;-94
2023/04/03 07:10:07;;;;;;;38.87;7.50;;;13.10;57.00;;;;;;5008366;28;20351;-94
2023/04/03 07:12:35;;;;;;;56.87;9.27;;;13.10;57.00;;;;;;5006254;28;20260;-96
2023/04/03 07:15:16;;;;;;;43.80;7.63;;;13.10;57.00;;;;;;5011918;28;20198;-96
2023/04/03 07:17:43;;;;;;;36.00;7.87;;;13.10;57.00;;;;;;5009399;28;20640;-96
2023/04/03 07:20:11;;;;;;;54.07;8.80;;;13.10;57.00;;;;;;5010174;28;20291;-96
2023/04/03 07:22:38;;;;;;;33.47;7.20;;;13.10;57.10;;;;;;5015035;28;20300;-95
2023/04/03 07:25:07;;;;;;;42.33;8.53;;;13.10;57.00;;;;;;5011704;28;20240;-95
2023/04/03 07:27:36;;;;;;;33.87;8.07;;;13.10;57.10;;;;;;5010591;28;20207;-96
2023/04/03 07:30:04;;;;;;;42.67;8.13;;;13.10;57.00;;;;;;5012636;28;20664;-96
2023/04/03 07:32:30;;;;;;;60.80;9.40;;;13.10;57.10;;;;;;5010674;28;20297;-96
2023/04/03 07:34:58;;;;;;;48.07;8.10;;;13.00;57.00;;;;;;5011803;28;20305;-95
2023/04/03 07:37:24;;;;;;;34.27;7.63;;;13.10;57.10;;;;;;5011421;28;20974;-95
2023/04/03 07:39:51;;;;;;;40.73;7.97;;;13.10;57.10;;;;;;5012478;28;20264;-96
2023/04/03 07:42:21;;;;;;;45.97;8.50;;;13.10;57.10;;;;;;5010492;28;20213;-95
2023/04/03 07:44:49;;;;;;;37.27;8.03;;;13.10;57.10;;;;;;5012676;28;20297;-96
2023/04/03 07:47:17;;;;;;;44.63;8.43;;;13.10;57.10;;;;;;5011340;28;20206;-96
2023/04/03 07:49:45;;;;;;;40.50;8.07;;;13.10;57.10;;;;;;5011301;28;20206;-95
2023/04/03 07:52:12;;;;;;;36.60;7.73;;;13.10;57.10;;;;;;4999197;28;20218;-96
2023/04/03 07:54:39;;;;;;;43.27;8.20;;;13.20;57.20;;;;;;5010998;28;20233;-95
2023/04/03 07:57:06;;;;;;;55.60;10.10;;;13.00;57.00;;;;;;5013063;28;20611;-96
2023/04/03 07:59:33;;;;;;;32.07;7.57;;;13.10;57.70;;;;;;5014388;28;20199;-96
2023/04/03 08:02:01;;;;;;;49.70;9.17;;;13.10;57.10;;;;;;5013371;28;20209;-95
2023/04/03 08:04:46;;;;;;;36.53;7.80;;;13.10;57.10;;;;;;5013889;28;20229;-95
2023/04/03 08:07:13;;;;;;;43.20;8.20;;;13.10;57.00;;;;;;5013243;28;20207;-95
2023/04/03 08:09:40;;;;;;;37.80;7.93;;;13.00;57.00;;;;;;5013562;28;20269;-95
2023/04/03 08:12:07;;;;;;;34.97;8.00;;;13.00;57.10;;;;;;5013502;28;20243;-95
2023/04/03 08:14:35;;;;;;;37.30;7.93;;;13.10;57.70;;;;;;5015649;28;20206;-96
2023/04/03 08:17:04;;;;;;;45.83;8.63;;;13.10;57.10;;;;;;5016299;28;20208;-95
2023/04/03 08:19:32;;;;;;;40.50;8.27;;;13.00;57.10;;;;;;5014506;28;21096;-96
2023/04/03 08:22:02;;;;;;;45.40;8.67;;;13.00;57.10;;;;;;5011548;28;20287;-95
2023/04/03 08:24:30;;;;;;;31.47;7.57;;;13.00;57.10;;;;;;5015693;28;20247;-96
2023/04/03 08:27:01;;;;;;;47.10;8.53;;;13.10;57.30;;;;;;5022969;28;20204;-95
2023/04/03 08:29:28;;;;;;;41.67;8.60;;;13.00;57.10;;;;;;5012317;28;20203;-96
2023/04/03 08:31:55;;;;;;;45.03;8.07;;;13.00;57.20;;;;;;5011873;28;20213;-96
2023/04/03 08:34:23;;;;;;;33.73;7.70;;;13.10;57.30;;;;;;5012148;28;20210;-96
2023/04/03 08:36:53;;;;;;;36.30;7.63;;;13.10;57.20;;;;;;5009624;28;20224;-96
2023/04/03 08:39:24;;;;;;;39.23;8.33;;;13.00;57.20;;;;;;5009733;28;20265;-96
2023/04/03 08:41:51;;;;;;;47.37;8.73;;;13.10;57.20;;;;;;5009931;28;20690;-96
2023/04/03 08:44:55;;;;;;;39.97;8.00;;;13.10;57.30;;;;;;5012383;28;20207;-95
2023/04/03 08:47:30;;;;;;;39.13;8.67;;;13.10;57.20;;;;;;5013622;28;20208;-95
2023/04/03 08:50:00;;;;;;;33.80;7.60;;;13.10;57.30;;;;;;5025451;28;20220;-96
2023/04/03 08:52:36;;;;;;;56.57;9.53;;;13.10;57.30;;;;;;5013804;28;20213;-94
2023/04/03 08:55:06;;;;;;;46.63;8.03;;;13.10;57.30;;;;;;5019998;28;20205;-91
2023/04/03 08:57:37;;;;;;;32.10;8.27;;;13.10;57.30;;;;;;5010145;28;20209;-92
2023/04/03 09:00:28;;;;;;;56.70;9.73;;;13.10;57.40;;;;;;5014353;28;20237;-95
2023/04/03 09:02:56;;;;;;;41.20;8.83;;;13.10;57.30;;;;;;5005374;28;20227;-93
2023/04/03 09:05:38;;;;;;;37.60;7.97;;;13.10;57.40;;;;;;5011406;28;20742;-91
2023/04/03 09:08:13;;;;;;;38.10;8.40;;;13.10;57.40;;;;;;5011299;28;20201;-92
2023/04/03 09:10:42;;;;;;;50.47;9.93;;;13.10;57.40;;;;;;5013582;28;20198;-96
2023/04/03 09:13:14;;;;;;;54.33;9.13;;;13.10;57.40;;;;;;5010991;28;20211;-94
2023/04/03 09:15:45;;;;;;;41.10;8.80;;;13.20;57.60;;;;;;5006843;28;20211;-94
2023/04/03 09:18:17;;;;;;;41.17;8.50;;;13.20;57.50;;;;;;5001342;28;20217;-96
2023/04/03 09:20:52;;;;;;;28.77;7.80;;;13.20;57.60;;;;;;4993759;28;20244;-96
2023/04/03 09:23:25;;;;;;;61.63;10.23;;;13.30;57.60;;;;;;5006205;28;20715;-95
2023/04/03 09:25:59;;;;;;;37.10;8.43;;;13.20;57.60;;;;;;5013567;28;20228;-95
2023/04/03 09:28:26;;;;;;;30.67;7.80;;;13.20;57.60;;;;;;5017464;28;20232;-96
2023/04/03 09:30:53;;;;;;;32.33;8.17;;;13.20;57.60;;;;;;5017141;28;20237;-94
2023/04/03 09:33:22;;;;;;;39.13;8.67;;;13.30;57.60;;;;;;5011873;28;20209;-93
2023/04/03 09:36:34;;;;;;;50.83;9.37;;;13.30;57.70;;;;;;5008086;28;20237;-94
2023/04/03 09:39:07;;;;;;;49.93;9.23;;;13.30;57.70;;;;;;4925304;29;20429;-92
2023/04/03 09:41:34;;;;;;;36.73;8.07;;;13.30;57.60;;;;;;4997981;28;20244;-91
2023/04/03 09:44:02;;;;;;;41.13;8.73;;;13.30;57.70;;;;;;5008925;28;20605;-91
2023/04/03 09:46:33;;;;;;;38.77;8.47;;;13.30;58.30;;;;;;5008866;28;20214;-91
2023/04/03 09:49:02;;;;;;;38.50;8.23;;;13.30;57.80;;;;;;5009036;28;20201;-92
2023/04/03 09:51:31;;;;;;;52.70;9.90;;;13.20;57.70;;;;;;4991563;28;20739;-94
2023/04/03 09:53:58;;;;;;;59.07;10.20;;;13.40;57.80;;;;;;5010243;28;20215;-94
2023/04/03 09:56:28;;;;;;;28.87;7.43;;;13.40;57.80;;;;;;5011989;28;20258;-92
2023/04/03 09:59:15;;;;;;;35.37;7.40;;;13.40;57.90;;;;;;5010256;28;20229;-92
2023/04/03 10:01:45;;;;;;;30.33;7.47;;;13.40;58.50;;;;;;5014794;28;20282;-96
2023/04/03 10:04:14;;;;;;;32.80;7.90;;;13.50;58.00;;;;;;5011460;28;20453;-93
2023/04/03 10:06:46;;;;;;;59.13;9.97;;;13.50;58.00;;;;;;5011754;28;20201;-95
2023/04/03 10:09:20;;;;;;;24.07;6.77;;;13.50;58.00;;;;;;5010482;28;20259;-94
2023/04/03 10:12:05;;;;;;;25.90;6.60;;;13.60;58.20;;;;;;4990628;28;20577;-94
2023/04/03 10:14:32;;;;;;;34.47;6.93;;;13.60;58.20;;;;;;5009885;28;20219;-94
2023/04/03 10:17:11;;;;;;;28.20;7.40;;;13.60;58.20;;;;;;5009976;28;20210;-95
2023/04/03 10:19:45;;;;;;;29.83;6.20;;;13.60;58.20;;;;;;5009895;28;20648;-94
2023/04/03 10:22:27;;;;;;;32.03;7.00;;;13.70;58.20;;;;;;5009158;28;20268;-94
2023/04/03 10:25:05;;;;;;;26.60;6.40;;;13.70;58.30;;;;;;5013013;28;20254;-95
2023/04/03 10:28:00;;;;;;;28.23;7.10;;;13.80;58.30;;;;;;5008863;28;20205;-93
2023/04/03 10:30:41;;;;;;;45.57;8.13;;;13.80;58.90;;;;;;5009584;28;20217;-95
2023/04/03 10:33:32;;;;;;;30.77;6.63;;;13.80;58.20;;;;;;4997978;28;20280;-93
2023/04/03 10:42:33;;;;;;;9.73;4.93;;;13.90;58.30;;;;;;5037027;28;20236;-91
2023/04/03 10:45:20;;;;;;;14.53;5.50;;;14.00;58.30;;;;;;5052825;28;20182;-94
2023/04/03 10:47:55;;;;;;;36.10;7.13;;;14.00;58.30;;;;;;5007568;28;20612;-93
2023/04/03 10:50:38;;;;;;;35.40;7.27;;;14.00;58.30;;;;;;5009524;28;20211;-93
2023/04/03 10:53:13;;;;;;;19.43;5.60;;;14.00;58.20;;;;;;5014178;28;20207;-94
2023/04/03 10:55:50;;;;;;;29.03;6.30;;;14.10;58.30;;;;;;5013946;28;20198;-95
2023/04/03 10:58:30;;;;;;;28.87;6.43;;;14.10;58.40;;;;;;5014623;28;20285;-96
2023/04/03 11:01:03;;;;;;;41.83;7.00;;;14.00;58.20;;;;;;4993552;28;20306;-95
2023/04/03 11:03:35;;;;;;;28.67;6.47;;;14.10;58.30;;;;;;4994071;28;20227;-96
2023/04/03 11:06:05;;;;;;;28.87;6.07;;;14.10;58.30;;;;;;5002117;28;20205;-95
2023/04/03 11:08:39;;;;;;;26.37;6.20;;;14.20;58.40;;;;;;5016261;28;20203;-96
2023/04/03 11:11:10;;;;;;;33.87;6.67;;;14.20;58.30;;;;;;4995171;28;20256;-95
2023/04/03 11:13:43;;;;;;;24.13;5.60;;;14.20;58.30;;;;;;4996289;28;20292;-96
2023/04/03 11:16:16;;;;;;;22.43;5.40;;;14.20;58.30;;;;;;5013911;28;20286;-93
2023/04/03 11:18:48;;;;;;;33.73;6.93;;;14.30;58.40;;;;;;4995238;28;20704;-93
2023/04/03 11:21:21;;;;;;;29.77;6.67;;;14.30;58.40;;;;;;5012935;28;20722;-93
2023/04/03 11:23:49;;;;;;;35.40;5.87;;;14.30;58.30;;;;;;5012767;28;20236;-93
2023/04/03 11:26:21;;;;;;;24.40;5.80;;;14.30;58.30;;;;;;5012953;28;20550;-93
2023/04/03 11:28:53;;;;;;;32.37;6.43;;;14.40;58.40;;;;;;5012219;28;20211;-94
2023/04/03 11:31:48;;;;;;;27.40;5.93;;;14.40;58.40;;;;;;5009811;28;20212;-93
2023/04/03 11:34:29;;;;;;;35.60;6.27;;;14.40;58.40;;;;;;5012734;28;20201;-93
2023/04/03 11:37:00;;;;;;;32.80;6.73;;;14.40;58.40;;;;;;5012337;28;20228;-93
2023/04/03 11:39:31;;;;;;;34.03;6.43;;;14.40;58.40;;;;;;5012330;28;20208;-94
2023/04/03 11:42:18;;;;;;;47.07;7.77;;;14.40;58.40;;;;;;5012275;28;20233;-94
2023/04/03 11:44:48;;;;;;;25.80;5.67;;;14.50;58.40;;;;;;5012164;28;20219;-93
2023/04/03 11:47:49;;;;;;;27.00;5.93;;;14.40;58.30;;;;;;4994518;28;20217;-93
2023/04/03 11:50:32;;;;;;;18.90;5.80;;;14.60;58.50;;;;;;5012067;28;20218;-93
2023/04/03 11:53:04;;;;;;;28.63;6.30;;;14.50;58.40;;;;;;4996775;28;20205;-93
2023/04/03 11:55:59;;;;;;;22.70;5.80;;;14.50;58.40;;;;;;5012512;28;20208;-93
2023/04/03 11:58:27;;;;;;;29.47;5.93;;;14.60;58.50;;;;;;4994622;28;20263;-93
2023/04/03 12:01:09;;;;;;;28.60;5.97;;;14.60;58.50;;;;;;5011074;28;20237;-94
2023/04/03 12:04:05;;;;;;;22.30;5.37;;;14.60;58.50;;;;;;5011613;28;20223;-93
2023/04/03 12:07:08;;;;;;;21.03;5.47;;;14.70;58.50;;;;;;5012218;28;20204;-94
2023/04/03 12:10:00;;;;;;;21.37;5.20;;;14.60;58.40;;;;;;5002058;28;20197;-94
2023/04/03 12:12:37;;;;;;;29.20;6.23;;;14.60;58.40;;;;;;5003902;28;20659;-93
2023/04/03 12:15:20;;;;;;;35.37;6.50;;;14.70;58.50;;;;;;5011789;28;20203;-92
2023/04/03 12:17:47;;;;;;;35.37;6.57;;;14.70;58.50;;;;;;5011784;28;20209;-93
2023/04/03 12:21:03;;;;;;;25.87;5.80;;;14.70;58.50;;;;;;5010171;28;20676;-93
2023/04/03 12:23:34;;;;;;;41.17;6.90;;;14.70;58.50;;;;;;4930495;29;20228;-93
2023/04/03 12:26:21;;;;;;;27.57;5.83;;;14.80;58.60;;;;;;4912514;29;20217;-93
2023/04/03 12:28:53;;;;;;;35.03;6.37;;;14.80;58.60;;;;;;4961218;28;20213;-92
2023/04/03 12:31:21;;;;;;;30.67;5.77;;;14.80;58.60;;;;;;4992419;28;20661;-93
2023/04/03 12:34:13;;;;;;;24.70;5.40;;;14.80;58.60;;;;;;5034784;28;20203;-91
2023/04/03 12:36:49;;;;;;;34.57;6.30;;;14.90;58.70;;;;;;5032114;28;20235;-93
2023/04/03 12:39:52;;;;;;;28.87;6.03;;;14.90;58.70;;;;;;5031046;28;20200;-93
2023/04/03 12:42:40;;;;;;;43.67;6.53;;;14.90;58.70;;;;;;5028218;28;20242;-93
2023/04/03 12:45:17;;;;;;;26.10;5.77;;;14.90;58.70;;;;;;5011103;28;20224;-93
2023/04/03 12:47:45;;;;;;;25.40;5.80;;;15.00;58.70;;;;;;5011589;28;20275;-93
2023/04/03 12:50:23;;;;;;;26.17;5.60;;;15.00;58.70;;;;;;5011150;28;20645;-93
2023/04/03 12:52:57;;;;;;;29.17;6.40;;;15.00;58.80;;;;;;5010800;28;20668;-92
2023/04/03 12:55:26;;;;;;;30.27;5.50;;;15.00;58.70;;;;;;5011080;28;20197;-93
2023/04/03 12:57:53;;;;;;;28.87;5.30;;;15.10;58.80;;;;;;5011014;28;20672;-93
2023/04/03 13:00:29;;;;;;;26.83;5.83;;;15.10;58.80;;;;;;5011282;28;20193;-93
2023/04/03 13:02:57;;;;;;;44.87;6.83;;;15.10;58.80;;;;;;5009485;28;20228;-93
2023/04/03 13:05:25;;;;;;;23.23;5.30;;;15.10;58.70;;;;;;5011024;28;20213;-93